createdAt,value
2023-09-03T00:02:24.277Z,5.45
2023-09-03T00:04:51.369Z,6.60
2023-09-03T00:07:18.504Z,5.03
2023-09-03T00:09:45.581Z,5.38
2023-09-03T00:12:12.691Z,6.25
2023-09-03T00:14:39.840Z,5.80
2023-09-03T00:17:06.949Z,6.07
2023-09-03T00:19:34.118Z,4.05
2023-09-03T00:22:01.855Z,6.43
2023-09-03T00:24:28.944Z,4.65
2023-09-03T00:26:56.052Z,6.20
2023-09-03T00:29:23.121Z,5.50
2023-09-03T00:31:50.197Z,4.82
2023-09-03T00:34:17.207Z,6.25
2023-09-03T00:36:45.545Z,4.13
2023-09-03T00:39:12.688Z,5.20
2023-09-03T00:41:39.767Z,7.40
2023-09-03T00:44:06.969Z,7.43
2023-09-03T00:46:34.138Z,4.93
2023-09-03T00:49:01.340Z,6.25
2023-09-03T00:51:28.858Z,5.88
2023-09-03T00:53:57.447Z,7.65
2023-09-03T00:56:24.902Z,9.00
2023-09-03T00:58:52.894Z,6.43
2023-09-03T01:01:20.522Z,4.63
2023-09-03T01:03:48.634Z,8.00
2023-09-03T01:06:15.886Z,7.03
2023-09-03T01:08:43.227Z,6.05
2023-09-03T01:11:37.181Z,6.80
2023-09-03T01:14:04.276Z,4.38
2023-09-03T01:16:41.297Z,4.05
2023-09-03T01:19:31.328Z,5.50
2023-09-03T01:22:07.432Z,6.57
2023-09-03T01:24:58.239Z,7.35
2023-09-03T01:27:52.567Z,6.75
2023-09-03T01:30:20.876Z,5.63
2023-09-03T01:32:50.375Z,5.43
2023-09-03T01:35:19.597Z,6.38
2023-09-03T01:37:47.036Z,5.00
2023-09-03T01:40:14.129Z,6.40
2023-09-03T01:42:41.209Z,6.45
2023-09-03T01:45:09.059Z,7.60
2023-09-03T01:47:49.899Z,8.10
2023-09-03T01:50:47.502Z,6.57
2023-09-03T01:53:21.757Z,5.63
2023-09-03T01:55:56.216Z,5.78
2023-09-03T01:58:27.694Z,4.80
2023-09-03T02:00:57.004Z,4.80
2023-09-03T02:03:27.990Z,5.07
2023-09-03T02:05:55.158Z,5.22
2023-09-03T02:08:22.468Z,7.82
2023-09-03T02:10:49.789Z,4.78
2023-09-03T02:13:21.426Z,6.53
2023-09-03T02:15:48.488Z,3.88
2023-09-03T02:18:15.614Z,4.43
2023-09-03T02:20:42.671Z,4.28
2023-09-03T02:23:09.803Z,6.28
2023-09-03T02:25:36.935Z,4.68
2023-09-03T02:28:04.132Z,4.53
2023-09-03T02:30:31.708Z,4.40
2023-09-03T02:32:58.832Z,4.93
2023-09-03T02:35:26.412Z,3.92
2023-09-03T02:37:53.437Z,5.75
2023-09-03T02:40:21.358Z,7.53
2023-09-03T02:42:48.458Z,4.88
2023-09-03T02:45:15.542Z,5.78
2023-09-03T02:47:42.629Z,4.18
2023-09-03T02:50:09.823Z,5.93
2023-09-03T02:52:36.896Z,6.00
2023-09-03T02:55:04.082Z,5.00
2023-09-03T02:57:31.180Z,6.35
2023-09-03T02:59:58.329Z,5.05
2023-09-03T03:02:25.397Z,5.40
2023-09-03T03:04:52.799Z,3.70
2023-09-03T03:07:19.995Z,5.32
2023-09-03T03:09:50.747Z,6.93
2023-09-03T03:12:19.974Z,4.88
2023-09-03T03:14:47.635Z,5.32
2023-09-03T03:17:14.847Z,4.88
2023-09-03T03:19:42.452Z,4.80
2023-09-03T03:22:09.546Z,5.38
2023-09-03T03:24:36.656Z,5.28
2023-09-03T03:27:03.986Z,6.68
2023-09-03T03:29:31.247Z,3.80
2023-09-03T03:31:59.970Z,6.05
2023-09-03T03:34:28.186Z,4.35
2023-09-03T03:36:58.551Z,6.43
2023-09-03T03:39:25.704Z,3.70
2023-09-03T03:41:52.969Z,3.85
2023-09-03T03:44:21.392Z,4.63
2023-09-03T03:46:48.599Z,4.13
2023-09-03T03:49:15.912Z,5.15
2023-09-03T03:51:42.962Z,4.35
2023-09-03T03:54:12.152Z,4.28
2023-09-03T03:56:39.180Z,4.75
2023-09-03T03:59:06.287Z,3.67
2023-09-03T04:01:33.486Z,4.70
2023-09-03T04:04:00.848Z,6.18
2023-09-03T04:06:29.242Z,6.20
2023-09-03T04:08:56.571Z,5.55
2023-09-03T04:11:25.710Z,6.50
2023-09-03T04:13:53.193Z,5.50
2023-09-03T04:16:23.378Z,5.63
2023-09-03T04:18:52.120Z,4.63
2023-09-03T04:21:19.829Z,6.22
2023-09-03T04:23:47.032Z,5.22
2023-09-03T04:26:14.394Z,4.47
2023-09-03T04:28:53.639Z,4.88
2023-09-03T04:31:20.811Z,5.90
2023-09-03T04:33:47.974Z,5.10
2023-09-03T04:36:15.151Z,5.72
2023-09-03T04:38:42.204Z,7.55
2023-09-03T04:41:09.731Z,3.05
2023-09-03T04:43:48.718Z,3.45
2023-09-03T04:46:23.113Z,4.97
2023-09-03T04:48:50.268Z,2.90
2023-09-03T04:51:17.479Z,2.78
2023-09-03T04:53:44.547Z,3.17
2023-09-03T04:56:15.720Z,2.88
2023-09-03T04:58:45.469Z,2.88
2023-09-03T05:01:39.051Z,3.50
2023-09-03T05:04:08.170Z,2.20
2023-09-03T05:06:35.236Z,4.28
2023-09-03T05:09:02.456Z,3.17
2023-09-03T05:11:29.680Z,3.50
2023-09-03T05:13:58.523Z,3.50
2023-09-03T05:16:28.347Z,4.45
2023-09-03T05:18:56.078Z,2.90
2023-09-03T05:21:23.181Z,2.75
2023-09-03T05:23:51.733Z,3.80
2023-09-03T05:26:19.378Z,2.70
2023-09-03T05:28:46.794Z,2.40
2023-09-03T05:31:14.065Z,2.17
2023-09-03T05:33:42.519Z,2.33
2023-09-03T05:36:11.170Z,3.65
2023-09-03T05:38:38.223Z,1.55
2023-09-03T05:41:06.036Z,1.02
2023-09-03T05:43:33.169Z,1.08
2023-09-03T05:46:01.627Z,1.05
2023-09-03T05:48:29.489Z,2.03
2023-09-03T05:51:00.656Z,1.92
2023-09-03T05:53:29.541Z,1.25
2023-09-03T05:56:06.024Z,1.00
2023-09-03T05:58:34.350Z,1.65
2023-09-03T06:01:10.299Z,3.28
2023-09-03T06:03:39.644Z,2.10
2023-09-03T06:06:10.267Z,1.30
2023-09-03T06:08:38.652Z,0.95
2023-09-03T06:11:07.054Z,2.05
2023-09-03T06:13:35.070Z,1.10
2023-09-03T06:16:03.794Z,0.93
2023-09-03T06:18:31.237Z,0.77
2023-09-03T06:20:58.492Z,1.25
2023-09-03T06:23:27.350Z,0.68
2023-09-03T06:25:54.441Z,0.75
2023-09-03T06:28:21.762Z,0.80
2023-09-03T06:30:49.096Z,0.85
2023-09-03T06:33:16.460Z,1.15
2023-09-03T06:35:44.034Z,1.15
2023-09-03T06:38:11.060Z,2.58
2023-09-03T06:40:38.068Z,1.88
2023-09-03T06:43:05.226Z,0.80
2023-09-03T06:45:33.698Z,2.97
2023-09-03T06:48:00.816Z,1.60
2023-09-03T06:50:28.223Z,2.15
2023-09-03T06:52:55.225Z,0.70
2023-09-03T06:55:22.384Z,3.45
2023-09-03T06:57:49.420Z,2.05
2023-09-03T07:00:17.273Z,2.63
2023-09-03T07:02:44.491Z,3.03
2023-09-03T07:05:11.696Z,3.72
2023-09-03T07:07:38.889Z,1.95
2023-09-03T07:10:06.571Z,2.58
2023-09-03T07:12:33.703Z,6.18
2023-09-03T07:15:00.764Z,7.00
2023-09-03T07:17:27.904Z,2.25
2023-09-03T07:19:56.234Z,3.33
2023-09-03T07:22:23.410Z,2.35
2023-09-03T07:24:54.137Z,5.93
2023-09-03T07:27:21.359Z,4.18
2023-09-03T07:29:53.229Z,1.98
2023-09-03T07:32:23.766Z,2.33
2023-09-03T07:34:52.064Z,2.03
2023-09-03T07:37:19.476Z,1.55
2023-09-03T07:39:47.443Z,2.05
2023-09-03T07:42:14.584Z,1.35
2023-09-03T07:44:44.402Z,2.40
2023-09-03T07:47:11.488Z,1.77
2023-09-03T07:49:38.526Z,1.55
2023-09-03T07:52:07.915Z,2.83
2023-09-03T07:54:35.045Z,1.95
2023-09-03T07:57:02.104Z,2.85
2023-09-03T07:59:29.348Z,0.98
2023-09-03T08:02:00.120Z,2.95
2023-09-03T08:04:27.389Z,1.77
2023-09-03T08:06:54.414Z,2.00
2023-09-03T08:09:24.920Z,4.25
2023-09-03T08:11:52.856Z,3.03
2023-09-03T08:14:20.123Z,1.55
2023-09-03T08:16:47.222Z,1.55
2023-09-03T08:19:14.371Z,0.40
2023-09-03T08:21:42.859Z,1.30
2023-09-03T08:24:11.028Z,0.90
2023-09-03T08:26:38.399Z,0.73
2023-09-03T08:29:05.520Z,2.72
2023-09-03T08:31:32.610Z,1.38
2023-09-03T08:33:59.731Z,1.67
2023-09-03T08:36:26.983Z,0.98
2023-09-03T08:38:54.748Z,1.27
2023-09-03T08:41:24.105Z,0.60
2023-09-03T08:43:55.700Z,0.40
2023-09-03T08:46:26.406Z,1.27
2023-09-03T08:48:55.624Z,0.93
2023-09-03T08:51:23.036Z,1.05
2023-09-03T08:53:52.518Z,2.90
2023-09-03T08:56:20.607Z,0.40
2023-09-03T08:58:47.820Z,0.60
2023-09-03T09:01:16.479Z,0.38
2023-09-03T09:03:45.670Z,0.73
2023-09-03T09:06:13.984Z,0.65
2023-09-03T09:08:42.402Z,0.65
2023-09-03T09:11:14.959Z,1.00
2023-09-03T09:13:52.367Z,1.52
2023-09-03T09:16:20.127Z,0.75
2023-09-03T09:18:47.257Z,0.60
2023-09-03T09:21:14.534Z,0.75
2023-09-03T09:23:41.703Z,0.30
2023-09-03T09:26:19.250Z,0.98
2023-09-03T09:29:03.665Z,1.65
2023-09-03T09:31:35.611Z,0.77
2023-09-03T09:34:14.271Z,1.52
2023-09-03T09:36:56.385Z,0.70
2023-09-03T09:39:25.978Z,0.52
2023-09-03T09:42:09.103Z,1.13
2023-09-03T09:44:36.198Z,1.60
2023-09-03T09:47:22.660Z,1.92
2023-09-03T09:49:50.272Z,1.77
2023-09-03T09:52:18.142Z,0.98
2023-09-03T09:54:47.007Z,0.98
2023-09-03T09:57:16.602Z,1.85
2023-09-03T09:59:44.768Z,0.82
2023-09-03T10:02:15.895Z,2.03
2023-09-03T10:07:12.557Z,1.63
2023-09-03T10:09:40.318Z,0.70
2023-09-03T10:12:09.227Z,1.42
2023-09-03T10:14:37.084Z,1.88
2023-09-03T10:17:09.225Z,1.50
2023-09-03T10:22:20.464Z,1.23
2023-09-03T10:25:00.149Z,1.00
2023-09-03T10:27:36.772Z,2.38
2023-09-03T10:30:08.177Z,1.67
2023-09-03T10:32:37.143Z,1.57
2023-09-03T10:35:11.425Z,1.08
2023-09-03T10:37:43.106Z,1.77
2023-09-03T10:40:26.585Z,1.90
2023-09-03T10:42:55.507Z,0.60
2023-09-03T10:45:22.790Z,0.88
2023-09-03T10:48:05.057Z,0.80
2023-09-03T10:53:10.228Z,1.08
2023-09-03T10:55:38.071Z,1.55
2023-09-03T10:58:32.091Z,1.13
2023-09-03T11:01:23.905Z,1.13
2023-09-03T11:03:53.515Z,0.68
2023-09-03T11:06:25.706Z,1.00
2023-09-03T11:09:06.381Z,0.70
2023-09-03T11:11:36.452Z,3.47
2023-09-03T11:14:04.904Z,3.13
2023-09-03T11:16:38.641Z,1.40
2023-09-03T11:19:09.065Z,1.60
2023-09-03T11:21:38.337Z,0.77
2023-09-03T11:24:10.286Z,1.98
2023-09-03T11:26:39.083Z,1.00
2023-09-03T11:29:23.097Z,2.30
2023-09-03T11:31:51.333Z,3.38
2023-09-03T11:34:25.391Z,1.40
2023-09-03T11:36:53.356Z,0.80
2023-09-03T11:39:23.311Z,5.15
2023-09-03T11:41:51.438Z,1.58
2023-09-03T11:44:23.308Z,1.55
2023-09-03T11:47:17.870Z,1.60
2023-09-03T11:49:49.165Z,1.02
2023-09-03T11:52:17.571Z,1.33
2023-09-03T11:54:45.504Z,1.42
2023-09-03T11:57:16.031Z,1.25
2023-09-03T11:59:44.754Z,1.60
2023-09-03T12:02:13.710Z,0.90
2023-09-03T12:04:43.954Z,1.40
2023-09-03T12:07:19.163Z,1.23
2023-09-03T12:09:52.664Z,1.00
2023-09-03T12:12:20.547Z,2.08
2023-09-03T12:14:48.272Z,1.60
2023-09-03T12:17:29.252Z,2.28
2023-09-03T12:19:56.984Z,1.20
2023-09-03T12:22:24.655Z,2.08
2023-09-03T12:24:52.511Z,1.40
2023-09-03T12:27:20.533Z,2.95
2023-09-03T12:29:54.720Z,4.00
2023-09-03T12:32:38.863Z,1.10
2023-09-03T12:35:20.429Z,3.38
2023-09-03T12:37:48.318Z,3.10
2023-09-03T12:40:16.190Z,2.92
2023-09-03T12:42:43.667Z,2.50
2023-09-03T12:45:11.520Z,1.42
2023-09-03T12:47:39.517Z,3.97
2023-09-03T12:50:08.671Z,3.00
2023-09-03T12:52:36.847Z,0.73
2023-09-03T12:55:05.841Z,1.83
2023-09-03T12:57:33.629Z,2.08
2023-09-03T13:00:06.098Z,2.38
2023-09-03T13:02:35.852Z,2.65
2023-09-03T13:05:06.424Z,2.72
2023-09-03T13:07:34.581Z,1.27
2023-09-03T13:10:02.878Z,4.05
2023-09-03T13:12:30.852Z,1.90
2023-09-03T13:15:02.654Z,1.92
2023-09-03T13:17:32.488Z,1.80
2023-09-03T13:20:00.926Z,1.77
2023-09-03T13:22:29.692Z,1.20
2023-09-03T13:24:57.319Z,1.95
2023-09-03T13:27:26.456Z,1.55
2023-09-03T13:29:54.142Z,1.63
2023-09-03T13:32:22.232Z,0.93
2023-09-03T13:34:49.509Z,2.25
2023-09-03T13:37:17.322Z,0.90
2023-09-03T13:39:45.529Z,1.20
2023-09-03T13:42:13.681Z,1.20
2023-09-03T13:44:43.319Z,2.97
2023-09-03T13:47:11.113Z,1.27
2023-09-03T13:49:39.417Z,2.53
2023-09-03T13:52:07.396Z,1.00
2023-09-03T13:54:35.722Z,1.38
2023-09-03T13:57:03.789Z,1.20
2023-09-03T13:59:35.712Z,1.45
2023-09-03T14:02:04.863Z,1.40
2023-09-03T14:04:32.802Z,1.63
2023-09-03T14:07:00.707Z,1.48
2023-09-03T14:09:28.857Z,3.22
2023-09-03T14:11:58.157Z,1.67
2023-09-03T14:14:25.869Z,2.13
2023-09-03T14:16:54.092Z,2.03
2023-09-03T14:19:24.003Z,3.55
2023-09-03T14:21:54.500Z,1.98
2023-09-03T14:24:22.133Z,2.85
2023-09-03T14:26:50.403Z,2.22
2023-09-03T14:29:20.306Z,3.35
2023-09-03T14:31:53.894Z,2.22
2023-09-03T14:34:21.704Z,3.22
2023-09-03T14:36:49.560Z,3.15
2023-09-03T14:39:23.624Z,3.03
2023-09-03T14:41:52.791Z,3.08
2023-09-03T14:44:20.351Z,3.88
2023-09-03T14:47:07.911Z,2.42
2023-09-03T14:49:44.236Z,2.45
2023-09-03T14:52:12.828Z,3.17
2023-09-03T14:54:40.894Z,4.97
2023-09-03T14:57:09.681Z,2.55
2023-09-03T14:59:37.980Z,4.82
2023-09-03T15:02:05.782Z,3.13
2023-09-03T15:04:33.541Z,3.08
2023-09-03T15:07:01.125Z,2.30
2023-09-03T15:09:28.856Z,3.15
2023-09-03T15:11:57.124Z,3.25
2023-09-03T15:14:26.991Z,2.60
2023-09-03T15:16:54.678Z,1.95
2023-09-03T15:19:23.840Z,3.85
2023-09-03T15:21:51.743Z,2.30
2023-09-03T15:24:20.236Z,2.45
2023-09-03T15:26:50.651Z,2.08
2023-09-03T15:29:18.690Z,2.38
2023-09-03T15:31:47.924Z,2.00
2023-09-03T15:34:17.412Z,2.95
2023-09-03T15:36:45.545Z,4.55
2023-09-03T15:39:13.862Z,2.15
2023-09-03T15:41:42.092Z,2.30
2023-09-03T15:44:09.641Z,2.65
2023-09-03T15:46:40.944Z,2.95
2023-09-03T15:49:10.774Z,3.40
2023-09-03T15:51:41.049Z,2.15
2023-09-03T15:54:08.798Z,1.88
2023-09-03T15:56:36.602Z,1.92
2023-09-03T15:59:04.899Z,2.28
2023-09-03T16:01:33.070Z,2.45
2023-09-03T16:04:01.135Z,2.92
2023-09-03T16:06:29.400Z,1.35
2023-09-03T16:08:56.786Z,2.60
2023-09-03T16:11:25.275Z,1.65
2023-09-03T16:13:53.307Z,1.88
2023-09-03T16:16:21.517Z,2.42
2023-09-03T16:18:51.179Z,1.50
2023-09-03T16:21:18.988Z,2.42
2023-09-03T16:23:47.288Z,2.67
2023-09-03T16:26:14.818Z,1.95
2023-09-03T16:28:42.566Z,1.63
2023-09-03T16:31:10.965Z,2.28
2023-09-03T16:33:39.270Z,2.08
2023-09-03T16:36:08.388Z,2.05
2023-09-03T16:38:38.028Z,3.25
2023-09-03T16:41:08.090Z,1.98
2023-09-03T16:43:42.424Z,2.25
2023-09-03T16:46:12.378Z,2.53
2023-09-03T16:48:40.772Z,2.70
2023-09-03T16:51:09.752Z,1.75
2023-09-03T16:53:37.849Z,4.38
2023-09-03T16:56:06.233Z,1.90
2023-09-03T16:58:34.335Z,1.73
2023-09-03T17:01:02.570Z,0.98
2023-09-03T17:03:30.649Z,1.85
2023-09-03T17:05:58.834Z,1.00
2023-09-03T17:08:27.248Z,2.03
2023-09-03T17:11:02.462Z,1.65
2023-09-03T17:13:30.855Z,3.58
2023-09-03T17:15:59.213Z,2.30
2023-09-03T17:18:27.818Z,1.48
2023-09-03T17:20:56.014Z,2.10
2023-09-03T17:23:24.130Z,1.00
2023-09-03T17:25:52.688Z,1.58
2023-09-03T17:28:20.808Z,1.30
2023-09-03T17:30:49.016Z,1.15
2023-09-03T17:33:17.774Z,3.08
2023-09-03T17:35:46.933Z,2.08
2023-09-03T17:38:15.027Z,1.80
2023-09-03T17:40:44.545Z,1.83
2023-09-03T17:43:13.141Z,2.05
2023-09-03T17:45:42.728Z,2.78
2023-09-03T17:48:10.905Z,1.77
2023-09-03T17:50:38.659Z,1.92
2023-09-03T17:53:06.199Z,2.28
2023-09-03T17:55:34.060Z,1.70
2023-09-03T17:58:02.522Z,4.32
2023-09-03T18:00:30.541Z,2.20
2023-09-03T18:02:58.665Z,1.75
2023-09-03T18:05:27.058Z,3.33
2023-09-03T18:07:55.708Z,2.08
2023-09-03T18:10:24.202Z,3.90
2023-09-03T18:12:52.756Z,2.67
2023-09-03T18:15:20.658Z,3.38
2023-09-03T18:17:50.083Z,3.17
2023-09-03T18:20:22.629Z,2.00
2023-09-03T18:22:51.327Z,2.75
2023-09-03T18:25:25.342Z,2.35
2023-09-03T18:27:54.446Z,5.03
2023-09-03T18:30:24.646Z,2.00
2023-09-03T18:32:55.916Z,4.40
2023-09-03T18:35:24.382Z,2.67
2023-09-03T18:37:52.052Z,4.00
2023-09-03T18:40:21.665Z,2.53
2023-09-03T18:42:50.026Z,3.17
2023-09-03T18:45:17.787Z,2.35
2023-09-03T18:47:47.053Z,4.28
2023-09-03T18:50:16.794Z,2.53
2023-09-03T18:52:44.963Z,3.25
2023-09-03T18:55:13.263Z,2.30
2023-09-03T18:57:40.828Z,3.00
2023-09-03T19:00:11.781Z,3.70
2023-09-03T19:02:40.534Z,4.38
2023-09-03T19:05:09.298Z,4.05
2023-09-03T19:07:37.370Z,3.33
2023-09-03T19:10:05.933Z,2.92
2023-09-03T19:12:36.877Z,2.75
2023-09-03T19:15:05.907Z,3.72
2023-09-03T19:17:37.177Z,2.67
2023-09-03T19:20:07.391Z,1.93
2023-09-03T19:22:37.596Z,1.80
2023-09-03T19:25:06.174Z,2.45
2023-09-03T19:27:37.711Z,2.08
2023-09-03T19:30:06.759Z,3.63
2023-09-03T19:32:38.621Z,1.92
2023-09-03T19:35:08.687Z,3.03
2023-09-03T19:37:38.416Z,3.20
2023-09-03T19:40:10.847Z,4.25
2023-09-03T19:42:52.329Z,5.22
2023-09-03T19:45:24.582Z,5.07
2023-09-03T19:47:53.441Z,3.88
2023-09-03T19:50:24.929Z,2.60
2023-09-03T19:52:52.640Z,2.70
2023-09-03T19:55:21.686Z,3.78
2023-09-03T19:57:50.323Z,2.70
2023-09-03T20:00:18.322Z,3.30
2023-09-03T20:02:51.216Z,4.93
2023-09-03T20:05:24.958Z,2.88
2023-09-03T20:07:52.888Z,2.30
2023-09-03T20:10:21.439Z,4.45
2023-09-03T20:12:48.834Z,2.25
2023-09-03T20:15:17.656Z,2.75
2023-09-03T20:17:47.632Z,3.42
2023-09-03T20:20:16.093Z,2.22
2023-09-03T20:22:44.649Z,2.33
2023-09-03T20:25:12.954Z,2.17
2023-09-03T20:27:43.261Z,2.85
2023-09-03T20:30:11.280Z,2.22
2023-09-03T20:32:39.211Z,3.03
2023-09-03T20:35:07.098Z,2.92
2023-09-03T20:37:39.299Z,3.97
2023-09-03T20:40:08.524Z,2.83
2023-09-03T20:42:36.689Z,2.75
2023-09-03T20:45:05.201Z,1.85
2023-09-03T20:47:33.016Z,1.88
2023-09-03T20:50:00.924Z,1.45
2023-09-03T20:52:28.394Z,2.33
2023-09-03T20:54:56.160Z,3.03
2023-09-03T20:57:24.184Z,1.63
2023-09-03T20:59:51.780Z,1.75
2023-09-03T21:02:19.028Z,1.83
2023-09-03T21:04:46.327Z,2.22
2023-09-03T21:07:13.633Z,1.85
2023-09-03T21:09:41.024Z,1.88
2023-09-03T21:12:08.666Z,3.35
2023-09-03T21:14:35.712Z,3.25
2023-09-03T21:17:02.820Z,2.92
2023-09-03T21:19:29.841Z,2.03
2023-09-03T21:21:56.855Z,1.63
2023-09-03T21:24:23.899Z,1.45
2023-09-03T21:26:50.886Z,3.67
2023-09-03T21:29:20.358Z,2.63
2023-09-03T21:31:47.466Z,1.90
2023-09-03T21:34:14.989Z,2.00
2023-09-03T21:36:42.300Z,2.03
2023-09-03T21:39:09.351Z,2.00
2023-09-03T21:41:36.345Z,2.33
2023-09-03T21:44:23.664Z,1.67
2023-09-03T21:46:50.811Z,3.05
2023-09-03T21:49:17.802Z,2.53
2023-09-03T21:51:44.811Z,2.80
2023-09-03T21:54:11.905Z,2.65
2023-09-03T21:56:38.937Z,2.35
2023-09-03T21:59:06.057Z,4.43
2023-09-03T22:01:33.094Z,2.92
2023-09-03T22:04:00.165Z,2.95
2023-09-03T22:06:27.183Z,2.05
2023-09-03T22:08:54.187Z,2.35
2023-09-03T22:11:21.421Z,2.75
2023-09-03T22:13:49.402Z,3.00
2023-09-03T22:16:16.497Z,2.60
2023-09-03T22:21:17.408Z,4.10
2023-09-03T22:23:44.560Z,2.63
2023-09-03T22:26:11.597Z,3.67
2023-09-03T22:28:38.682Z,2.50
2023-09-03T22:31:06.702Z,2.67
2023-09-03T22:33:33.778Z,2.17
2023-09-03T22:36:00.921Z,2.25
2023-09-03T22:38:28.041Z,2.78
2023-09-03T22:40:55.337Z,2.83
2023-09-03T22:43:22.430Z,2.50
2023-09-03T22:45:49.546Z,2.60
2023-09-03T22:48:16.649Z,3.55
2023-09-03T22:50:43.847Z,3.28
2023-09-03T22:53:10.886Z,3.55
2023-09-03T22:55:39.268Z,2.55
2023-09-03T22:58:06.473Z,2.88
2023-09-03T23:00:33.811Z,2.83
2023-09-03T23:03:01.040Z,2.22
2023-09-03T23:05:28.153Z,2.90
2023-09-03T23:07:55.401Z,2.83
2023-09-03T23:10:22.614Z,2.28
2023-09-03T23:12:49.685Z,3.47
2023-09-03T23:15:17.775Z,2.72
2023-09-03T23:17:45.027Z,3.78
2023-09-03T23:20:14.003Z,3.55
2023-09-03T23:22:41.789Z,3.17
2023-09-03T23:25:09.004Z,3.00
2023-09-03T23:27:36.065Z,4.28
2023-09-03T23:30:03.292Z,3.38
2023-09-03T23:32:30.408Z,3.30
2023-09-03T23:34:57.434Z,3.85
2023-09-03T23:37:24.527Z,3.33
2023-09-03T23:39:51.573Z,6.45
2023-09-03T23:42:18.672Z,3.63
2023-09-03T23:44:45.690Z,4.07
2023-09-03T23:47:14.823Z,4.65
2023-09-03T23:49:43.327Z,4.70
2023-09-03T23:52:10.442Z,4.30
2023-09-03T23:54:37.943Z,3.33
2023-09-03T23:57:05.285Z,4.18
2023-09-03T23:59:33.811Z,3.42
